sensor_id;sensor_type;location;lat;lon;timestamp;P1;durP1;ratioP1;P2;durP2;ratioP2
29574;SDS011;16507;51.046;6.406;2023-09-07T00:00:49;19.35;;;8.77;;
29574;SDS011;16507;51.046;6.406;2023-09-07T00:03:15;11.98;;;8.60;;
29574;SDS011;16507;51.046;6.406;2023-09-07T00:05:40;29.73;;;8.98;;
29574;SDS011;16507;51.046;6.406;2023-09-07T00:08:06;10.55;;;6.95;;
29574;SDS011;16507;51.046;6.406;2023-09-07T00:10:32;15.00;;;8.25;;
29574;SDS011;16507;51.046;6.406;2023-09-07T00:13:02;22.20;;;8.30;;
29574;SDS011;16507;51.046;6.406;2023-09-07T00:15:28;36.38;;;10.82;;
29574;SDS011;16507;51.046;6.406;2023-09-07T00:17:55;17.65;;;9.13;;
29574;SDS011;16507;51.046;6.406;2023-09-07T00:20:21;12.50;;;8.93;;
29574;SDS011;16507;51.046;6.406;2023-09-07T00:22:48;16.35;;;9.50;;
29574;SDS011;16507;51.046;6.406;2023-09-07T00:25:14;25.80;;;9.68;;
29574;SDS011;16507;51.046;6.406;2023-09-07T00:27:40;19.98;;;9.85;;
29574;SDS011;16507;51.046;6.406;2023-09-07T00:30:06;9.65;;;8.68;;
29574;SDS011;16507;51.046;6.406;2023-09-07T00:32:35;13.07;;;9.07;;
29574;SDS011;16507;51.046;6.406;2023-09-07T00:35:02;13.35;;;8.57;;
29574;SDS011;16507;51.046;6.406;2023-09-07T00:37:28;9.15;;;8.32;;
29574;SDS011;16507;51.046;6.406;2023-09-07T00:39:54;13.18;;;8.90;;
29574;SDS011;16507;51.046;6.406;2023-09-07T00:42:19;8.77;;;7.97;;
29574;SDS011;16507;51.046;6.406;2023-09-07T00:44:45;13.90;;;8.68;;
29574;SDS011;16507;51.046;6.406;2023-09-07T00:47:11;16.38;;;9.52;;
29574;SDS011;16507;51.046;6.406;2023-09-07T00:49:37;15.73;;;8.93;;
29574;SDS011;16507;51.046;6.406;2023-09-07T00:52:04;16.48;;;8.60;;
29574;SDS011;16507;51.046;6.406;2023-09-07T00:54:30;14.00;;;8.70;;
29574;SDS011;16507;51.046;6.406;2023-09-07T00:56:56;17.65;;;8.85;;
29574;SDS011;16507;51.046;6.406;2023-09-07T00:59:22;21.15;;;9.10;;
29574;SDS011;16507;51.046;6.406;2023-09-07T01:01:48;23.20;;;9.13;;
29574;SDS011;16507;51.046;6.406;2023-09-07T01:04:14;17.23;;;9.05;;
29574;SDS011;16507;51.046;6.406;2023-09-07T01:06:41;11.23;;;8.80;;
29574;SDS011;16507;51.046;6.406;2023-09-07T01:09:15;10.32;;;8.52;;
29574;SDS011;16507;51.046;6.406;2023-09-07T01:11:44;14.05;;;9.50;;
29574;SDS011;16507;51.046;6.406;2023-09-07T01:14:10;13.90;;;8.98;;
29574;SDS011;16507;51.046;6.406;2023-09-07T01:16:36;15.27;;;8.77;;
29574;SDS011;16507;51.046;6.406;2023-09-07T01:19:08;9.25;;;8.38;;
29574;SDS011;16507;51.046;6.406;2023-09-07T01:21:35;19.88;;;8.75;;
29574;SDS011;16507;51.046;6.406;2023-09-07T01:24:02;9.40;;;8.30;;
29574;SDS011;16507;51.046;6.406;2023-09-07T01:26:31;8.07;;;7.30;;
29574;SDS011;16507;51.046;6.406;2023-09-07T01:28:57;11.65;;;7.93;;
29574;SDS011;16507;51.046;6.406;2023-09-07T01:31:23;10.57;;;7.38;;
29574;SDS011;16507;51.046;6.406;2023-09-07T01:33:48;10.18;;;8.35;;
29574;SDS011;16507;51.046;6.406;2023-09-07T01:36:14;10.05;;;7.55;;
29574;SDS011;16507;51.046;6.406;2023-09-07T01:38:39;11.27;;;7.38;;
29574;SDS011;16507;51.046;6.406;2023-09-07T01:41:05;11.35;;;6.68;;
29574;SDS011;16507;51.046;6.406;2023-09-07T01:43:31;8.10;;;7.22;;
29574;SDS011;16507;51.046;6.406;2023-09-07T01:45:56;14.70;;;7.95;;
29574;SDS011;16507;51.046;6.406;2023-09-07T01:48:22;10.60;;;7.32;;
29574;SDS011;16507;51.046;6.406;2023-09-07T01:50:51;8.05;;;7.25;;
29574;SDS011;16507;51.046;6.406;2023-09-07T01:53:21;22.25;;;8.43;;
29574;SDS011;16507;51.046;6.406;2023-09-07T01:55:47;22.52;;;8.93;;
29574;SDS011;16507;51.046;6.406;2023-09-07T01:58:12;11.50;;;8.43;;
29574;SDS011;16507;51.046;6.406;2023-09-07T02:00:38;14.07;;;9.32;;
29574;SDS011;16507;51.046;6.406;2023-09-07T02:03:05;10.07;;;8.82;;
29574;SDS011;16507;51.046;6.406;2023-09-07T02:05:31;9.80;;;8.98;;
29574;SDS011;16507;51.046;6.406;2023-09-07T02:07:59;16.05;;;9.88;;
29574;SDS011;16507;51.046;6.406;2023-09-07T02:10:25;11.65;;;9.35;;
29574;SDS011;16507;51.046;6.406;2023-09-07T02:12:51;22.80;;;8.95;;
29574;SDS011;16507;51.046;6.406;2023-09-07T02:15:17;18.30;;;8.93;;
29574;SDS011;16507;51.046;6.406;2023-09-07T02:17:42;14.35;;;9.75;;
29574;SDS011;16507;51.046;6.406;2023-09-07T02:20:10;13.20;;;8.40;;
29574;SDS011;16507;51.046;6.406;2023-09-07T02:22:36;14.02;;;8.65;;
29574;SDS011;16507;51.046;6.406;2023-09-07T02:25:02;15.30;;;8.45;;
29574;SDS011;16507;51.046;6.406;2023-09-07T02:27:30;26.23;;;8.77;;
29574;SDS011;16507;51.046;6.406;2023-09-07T02:29:57;12.82;;;8.57;;
29574;SDS011;16507;51.046;6.406;2023-09-07T02:32:22;12.43;;;9.60;;
29574;SDS011;16507;51.046;6.406;2023-09-07T02:34:48;13.90;;;9.20;;
29574;SDS011;16507;51.046;6.406;2023-09-07T02:37:14;16.38;;;8.82;;
29574;SDS011;16507;51.046;6.406;2023-09-07T02:39:41;9.27;;;8.35;;
29574;SDS011;16507;51.046;6.406;2023-09-07T02:42:07;41.45;;;10.15;;
29574;SDS011;16507;51.046;6.406;2023-09-07T02:44:32;9.68;;;8.55;;
29574;SDS011;16507;51.046;6.406;2023-09-07T02:46:58;13.88;;;8.82;;
29574;SDS011;16507;51.046;6.406;2023-09-07T02:49:24;13.73;;;7.95;;
29574;SDS011;16507;51.046;6.406;2023-09-07T02:51:49;8.52;;;7.93;;
29574;SDS011;16507;51.046;6.406;2023-09-07T02:54:15;10.68;;;7.80;;
29574;SDS011;16507;51.046;6.406;2023-09-07T02:56:40;9.18;;;7.50;;
29574;SDS011;16507;51.046;6.406;2023-09-07T02:59:06;9.15;;;8.30;;
29574;SDS011;16507;51.046;6.406;2023-09-07T03:01:32;15.45;;;8.48;;
29574;SDS011;16507;51.046;6.406;2023-09-07T03:03:57;8.85;;;7.95;;
29574;SDS011;16507;51.046;6.406;2023-09-07T03:06:23;13.32;;;8.02;;
29574;SDS011;16507;51.046;6.406;2023-09-07T03:08:48;8.13;;;7.32;;
29574;SDS011;16507;51.046;6.406;2023-09-07T03:11:14;9.73;;;8.10;;
29574;SDS011;16507;51.046;6.406;2023-09-07T03:13:40;11.07;;;7.68;;
29574;SDS011;16507;51.046;6.406;2023-09-07T03:16:07;16.92;;;7.82;;
29574;SDS011;16507;51.046;6.406;2023-09-07T03:18:32;19.75;;;8.32;;
29574;SDS011;16507;51.046;6.406;2023-09-07T03:20:59;12.18;;;6.65;;
29574;SDS011;16507;51.046;6.406;2023-09-07T03:23:27;16.17;;;7.80;;
29574;SDS011;16507;51.046;6.406;2023-09-07T03:25:57;12.57;;;7.70;;
29574;SDS011;16507;51.046;6.406;2023-09-07T03:28:24;8.55;;;7.60;;
29574;SDS011;16507;51.046;6.406;2023-09-07T03:30:55;14.57;;;8.20;;
29574;SDS011;16507;51.046;6.406;2023-09-07T03:33:21;14.95;;;7.68;;
29574;SDS011;16507;51.046;6.406;2023-09-07T03:35:47;29.55;;;8.65;;
29574;SDS011;16507;51.046;6.406;2023-09-07T03:38:13;8.85;;;7.65;;
29574;SDS011;16507;51.046;6.406;2023-09-07T03:40:38;11.88;;;7.75;;
29574;SDS011;16507;51.046;6.406;2023-09-07T03:43:04;27.23;;;10.10;;
29574;SDS011;16507;51.046;6.406;2023-09-07T03:45:30;11.95;;;8.00;;
29574;SDS011;16507;51.046;6.406;2023-09-07T03:47:55;9.18;;;8.30;;
29574;SDS011;16507;51.046;6.406;2023-09-07T03:50:21;15.10;;;8.32;;
29574;SDS011;16507;51.046;6.406;2023-09-07T03:52:47;14.75;;;8.32;;
29574;SDS011;16507;51.046;6.406;2023-09-07T03:55:12;13.95;;;8.88;;
29574;SDS011;16507;51.046;6.406;2023-09-07T03:57:38;15.27;;;9.13;;
29574;SDS011;16507;51.046;6.406;2023-09-07T04:00:04;42.22;;;10.35;;
29574;SDS011;16507;51.046;6.406;2023-09-07T04:02:33;25.98;;;10.15;;
29574;SDS011;16507;51.046;6.406;2023-09-07T04:04:59;13.43;;;8.77;;
29574;SDS011;16507;51.046;6.406;2023-09-07T04:07:30;13.52;;;9.35;;
29574;SDS011;16507;51.046;6.406;2023-09-07T04:09:56;13.00;;;9.45;;
29574;SDS011;16507;51.046;6.406;2023-09-07T04:12:21;14.77;;;9.77;;
29574;SDS011;16507;51.046;6.406;2023-09-07T04:14:47;13.98;;;9.00;;
29574;SDS011;16507;51.046;6.406;2023-09-07T04:17:13;9.27;;;8.43;;
29574;SDS011;16507;51.046;6.406;2023-09-07T04:19:38;17.13;;;8.93;;
29574;SDS011;16507;51.046;6.406;2023-09-07T04:22:04;12.73;;;9.20;;
29574;SDS011;16507;51.046;6.406;2023-09-07T04:24:29;26.70;;;9.40;;
29574;SDS011;16507;51.046;6.406;2023-09-07T04:26:59;35.38;;;10.25;;
29574;SDS011;16507;51.046;6.406;2023-09-07T04:29:28;25.10;;;9.70;;
29574;SDS011;16507;51.046;6.406;2023-09-07T04:31:54;15.05;;;9.80;;
29574;SDS011;16507;51.046;6.406;2023-09-07T04:34:21;29.13;;;9.65;;
29574;SDS011;16507;51.046;6.406;2023-09-07T04:36:47;13.50;;;8.77;;
29574;SDS011;16507;51.046;6.406;2023-09-07T04:39:12;20.35;;;9.65;;
29574;SDS011;16507;51.046;6.406;2023-09-07T04:41:39;20.35;;;9.23;;
29574;SDS011;16507;51.046;6.406;2023-09-07T04:44:05;14.15;;;9.95;;
29574;SDS011;16507;51.046;6.406;2023-09-07T04:46:31;34.28;;;8.38;;
29574;SDS011;16507;51.046;6.406;2023-09-07T04:48:56;16.35;;;8.43;;
29574;SDS011;16507;51.046;6.406;2023-09-07T04:51:22;10.23;;;8.15;;
29574;SDS011;16507;51.046;6.406;2023-09-07T04:53:49;8.98;;;7.82;;
29574;SDS011;16507;51.046;6.406;2023-09-07T04:56:14;19.80;;;9.18;;
29574;SDS011;16507;51.046;6.406;2023-09-07T04:58:41;12.50;;;8.32;;
29574;SDS011;16507;51.046;6.406;2023-09-07T05:01:08;46.75;;;10.50;;
29574;SDS011;16507;51.046;6.406;2023-09-07T05:03:35;16.25;;;9.18;;
29574;SDS011;16507;51.046;6.406;2023-09-07T05:06:01;14.32;;;8.60;;
29574;SDS011;16507;51.046;6.406;2023-09-07T05:08:30;23.60;;;9.18;;
29574;SDS011;16507;51.046;6.406;2023-09-07T05:10:56;27.85;;;8.50;;
29574;SDS011;16507;51.046;6.406;2023-09-07T05:13:24;43.67;;;9.60;;
29574;SDS011;16507;51.046;6.406;2023-09-07T05:15:50;15.63;;;8.48;;
29574;SDS011;16507;51.046;6.406;2023-09-07T05:18:17;19.55;;;9.48;;
29574;SDS011;16507;51.046;6.406;2023-09-07T05:20:43;15.85;;;9.05;;
29574;SDS011;16507;51.046;6.406;2023-09-07T05:23:13;14.20;;;9.00;;
29574;SDS011;16507;51.046;6.406;2023-09-07T05:25:50;9.90;;;7.10;;
29574;SDS011;16507;51.046;6.406;2023-09-07T05:28:18;10.52;;;7.10;;
29574;SDS011;16507;51.046;6.406;2023-09-07T05:30:44;10.02;;;7.63;;
29574;SDS011;16507;51.046;6.406;2023-09-07T05:33:10;9.18;;;7.15;;
29574;SDS011;16507;51.046;6.406;2023-09-07T05:35:36;7.30;;;6.47;;
29574;SDS011;16507;51.046;6.406;2023-09-07T05:38:03;14.20;;;7.22;;
29574;SDS011;16507;51.046;6.406;2023-09-07T05:40:30;9.07;;;7.28;;
29574;SDS011;16507;51.046;6.406;2023-09-07T05:42:59;7.22;;;6.70;;
29574;SDS011;16507;51.046;6.406;2023-09-07T05:45:25;10.40;;;7.00;;
29574;SDS011;16507;51.046;6.406;2023-09-07T05:47:50;6.75;;;6.32;;
29574;SDS011;16507;51.046;6.406;2023-09-07T05:50:16;10.13;;;7.18;;
29574;SDS011;16507;51.046;6.406;2023-09-07T05:52:41;6.47;;;5.47;;
29574;SDS011;16507;51.046;6.406;2023-09-07T05:55:07;9.65;;;6.47;;
29574;SDS011;16507;51.046;6.406;2023-09-07T05:57:33;11.52;;;6.78;;
29574;SDS011;16507;51.046;6.406;2023-09-07T05:59:59;8.07;;;6.80;;
29574;SDS011;16507;51.046;6.406;2023-09-07T06:02:24;11.18;;;4.90;;
29574;SDS011;16507;51.046;6.406;2023-09-07T06:04:50;5.05;;;4.47;;
29574;SDS011;16507;51.046;6.406;2023-09-07T06:07:15;5.00;;;4.10;;
29574;SDS011;16507;51.046;6.406;2023-09-07T06:09:41;5.50;;;4.20;;
29574;SDS011;16507;51.046;6.406;2023-09-07T06:12:06;4.78;;;4.25;;
29574;SDS011;16507;51.046;6.406;2023-09-07T06:14:32;14.40;;;4.65;;
29574;SDS011;16507;51.046;6.406;2023-09-07T06:16:58;8.38;;;4.28;;
29574;SDS011;16507;51.046;6.406;2023-09-07T06:19:23;4.78;;;4.32;;
29574;SDS011;16507;51.046;6.406;2023-09-07T06:21:49;6.10;;;4.43;;
29574;SDS011;16507;51.046;6.406;2023-09-07T06:24:14;7.97;;;4.85;;
29574;SDS011;16507;51.046;6.406;2023-09-07T06:26:40;9.52;;;5.00;;
29574;SDS011;16507;51.046;6.406;2023-09-07T06:29:07;5.60;;;5.07;;
29574;SDS011;16507;51.046;6.406;2023-09-07T06:31:33;6.55;;;5.03;;
29574;SDS011;16507;51.046;6.406;2023-09-07T06:33:58;7.07;;;5.43;;
29574;SDS011;16507;51.046;6.406;2023-09-07T06:36:24;7.00;;;4.85;;
29574;SDS011;16507;51.046;6.406;2023-09-07T06:38:50;18.10;;;5.53;;
29574;SDS011;16507;51.046;6.406;2023-09-07T06:41:15;13.27;;;5.70;;
29574;SDS011;16507;51.046;6.406;2023-09-07T06:43:41;9.82;;;5.38;;
29574;SDS011;16507;51.046;6.406;2023-09-07T06:46:07;6.82;;;4.78;;
29574;SDS011;16507;51.046;6.406;2023-09-07T06:48:34;6.53;;;5.60;;
29574;SDS011;16507;51.046;6.406;2023-09-07T06:51:03;12.85;;;5.68;;
29574;SDS011;16507;51.046;6.406;2023-09-07T06:53:30;7.13;;;5.63;;
29574;SDS011;16507;51.046;6.406;2023-09-07T06:56:02;6.80;;;5.57;;
29574;SDS011;16507;51.046;6.406;2023-09-07T06:58:28;10.90;;;6.38;;
29574;SDS011;16507;51.046;6.406;2023-09-07T07:00:58;12.55;;;5.13;;
29574;SDS011;16507;51.046;6.406;2023-09-07T07:03:26;5.60;;;4.93;;
29574;SDS011;16507;51.046;6.406;2023-09-07T07:05:52;5.10;;;4.80;;
29574;SDS011;16507;51.046;6.406;2023-09-07T07:08:18;19.95;;;5.82;;
29574;SDS011;16507;51.046;6.406;2023-09-07T07:10:43;10.77;;;5.47;;
29574;SDS011;16507;51.046;6.406;2023-09-07T07:13:09;10.70;;;4.97;;
29574;SDS011;16507;51.046;6.406;2023-09-07T07:15:35;10.38;;;4.80;;
29574;SDS011;16507;51.046;6.406;2023-09-07T07:18:00;10.15;;;3.90;;
29574;SDS011;16507;51.046;6.406;2023-09-07T07:20:30;13.40;;;4.40;;
29574;SDS011;16507;51.046;6.406;2023-09-07T07:22:56;6.50;;;4.55;;
29574;SDS011;16507;51.046;6.406;2023-09-07T07:25:21;4.00;;;3.60;;
29574;SDS011;16507;51.046;6.406;2023-09-07T07:27:47;15.02;;;3.60;;
29574;SDS011;16507;51.046;6.406;2023-09-07T07:30:13;7.70;;;3.85;;
29574;SDS011;16507;51.046;6.406;2023-09-07T07:32:38;4.03;;;3.60;;
29574;SDS011;16507;51.046;6.406;2023-09-07T07:35:04;8.38;;;4.07;;
29574;SDS011;16507;51.046;6.406;2023-09-07T07:37:30;6.05;;;4.40;;
29574;SDS011;16507;51.046;6.406;2023-09-07T07:39:55;7.68;;;3.97;;
29574;SDS011;16507;51.046;6.406;2023-09-07T07:42:21;6.63;;;4.88;;
29574;SDS011;16507;51.046;6.406;2023-09-07T07:44:47;11.40;;;4.40;;
29574;SDS011;16507;51.046;6.406;2023-09-07T07:47:12;11.20;;;4.20;;
29574;SDS011;16507;51.046;6.406;2023-09-07T07:49:38;5.68;;;3.72;;
29574;SDS011;16507;51.046;6.406;2023-09-07T07:52:03;13.93;;;4.38;;
29574;SDS011;16507;51.046;6.406;2023-09-07T07:54:29;6.78;;;3.65;;
29574;SDS011;16507;51.046;6.406;2023-09-07T07:56:55;10.45;;;3.90;;
29574;SDS011;16507;51.046;6.406;2023-09-07T07:59:21;3.85;;;3.65;;
29574;SDS011;16507;51.046;6.406;2023-09-07T08:01:46;4.88;;;3.47;;
29574;SDS011;16507;51.046;6.406;2023-09-07T08:04:12;6.30;;;3.55;;
29574;SDS011;16507;51.046;6.406;2023-09-07T08:06:37;6.65;;;3.53;;
29574;SDS011;16507;51.046;6.406;2023-09-07T08:09:03;3.97;;;3.63;;
29574;SDS011;16507;51.046;6.406;2023-09-07T08:11:29;3.72;;;3.10;;
29574;SDS011;16507;51.046;6.406;2023-09-07T08:13:56;6.63;;;3.40;;
29574;SDS011;16507;51.046;6.406;2023-09-07T08:16:22;5.38;;;3.65;;
29574;SDS011;16507;51.046;6.406;2023-09-07T08:18:48;4.35;;;4.03;;
29574;SDS011;16507;51.046;6.406;2023-09-07T08:21:13;7.03;;;4.25;;
29574;SDS011;16507;51.046;6.406;2023-09-07T08:23:39;7.20;;;4.50;;
29574;SDS011;16507;51.046;6.406;2023-09-07T08:26:05;6.40;;;4.55;;
29574;SDS011;16507;51.046;6.406;2023-09-07T08:28:31;8.25;;;4.60;;
29574;SDS011;16507;51.046;6.406;2023-09-07T08:30:56;7.25;;;4.70;;
29574;SDS011;16507;51.046;6.406;2023-09-07T08:33:24;6.97;;;4.43;;
29574;SDS011;16507;51.046;6.406;2023-09-07T08:35:54;5.30;;;4.85;;
29574;SDS011;16507;51.046;6.406;2023-09-07T08:38:20;9.75;;;4.47;;
29574;SDS011;16507;51.046;6.406;2023-09-07T08:40:50;14.65;;;5.07;;
29574;SDS011;16507;51.046;6.406;2023-09-07T08:43:16;12.32;;;4.50;;
29574;SDS011;16507;51.046;6.406;2023-09-07T08:46:08;7.00;;;4.50;;
29574;SDS011;16507;51.046;6.406;2023-09-07T08:48:37;5.80;;;4.70;;
29574;SDS011;16507;51.046;6.406;2023-09-07T08:51:03;7.68;;;4.82;;
29574;SDS011;16507;51.046;6.406;2023-09-07T08:53:30;10.25;;;4.65;;
29574;SDS011;16507;51.046;6.406;2023-09-07T08:55:57;8.32;;;4.72;;
29574;SDS011;16507;51.046;6.406;2023-09-07T08:58:24;6.45;;;4.88;;
29574;SDS011;16507;51.046;6.406;2023-09-07T09:00:50;9.05;;;5.07;;
29574;SDS011;16507;51.046;6.406;2023-09-07T09:03:17;9.65;;;4.82;;
29574;SDS011;16507;51.046;6.406;2023-09-07T09:05:42;12.25;;;5.25;;
29574;SDS011;16507;51.046;6.406;2023-09-07T09:08:09;8.27;;;5.00;;
29574;SDS011;16507;51.046;6.406;2023-09-07T09:10:37;10.88;;;4.82;;
29574;SDS011;16507;51.046;6.406;2023-09-07T09:13:04;10.55;;;4.65;;
29574;SDS011;16507;51.046;6.406;2023-09-07T09:15:30;6.07;;;4.72;;
29574;SDS011;16507;51.046;6.406;2023-09-07T09:17:55;10.95;;;5.38;;
29574;SDS011;16507;51.046;6.406;2023-09-07T09:20:24;10.73;;;4.35;;
29574;SDS011;16507;51.046;6.406;2023-09-07T09:22:52;9.25;;;5.45;;
29574;SDS011;16507;51.046;6.406;2023-09-07T09:25:19;5.93;;;4.97;;
29574;SDS011;16507;51.046;6.406;2023-09-07T09:27:45;11.90;;;4.25;;
29574;SDS011;16507;51.046;6.406;2023-09-07T09:30:11;9.30;;;4.38;;
29574;SDS011;16507;51.046;6.406;2023-09-07T09:32:40;7.47;;;3.90;;
29574;SDS011;16507;51.046;6.406;2023-09-07T09:35:06;4.47;;;3.72;;
29574;SDS011;16507;51.046;6.406;2023-09-07T09:37:33;5.35;;;3.80;;
29574;SDS011;16507;51.046;6.406;2023-09-07T09:39:59;8.13;;;4.07;;
29574;SDS011;16507;51.046;6.406;2023-09-07T09:42:26;6.68;;;3.58;;
29574;SDS011;16507;51.046;6.406;2023-09-07T09:44:52;4.00;;;3.40;;
29574;SDS011;16507;51.046;6.406;2023-09-07T09:47:19;7.15;;;3.95;;
29574;SDS011;16507;51.046;6.406;2023-09-07T09:49:47;8.43;;;3.70;;
29574;SDS011;16507;51.046;6.406;2023-09-07T09:52:15;4.38;;;4.05;;
29574;SDS011;16507;51.046;6.406;2023-09-07T09:54:41;5.90;;;3.67;;
29574;SDS011;16507;51.046;6.406;2023-09-07T09:57:08;10.95;;;3.60;;
29574;SDS011;16507;51.046;6.406;2023-09-07T09:59:34;3.80;;;3.50;;
29574;SDS011;16507;51.046;6.406;2023-09-07T10:01:59;6.03;;;3.35;;
29574;SDS011;16507;51.046;6.406;2023-09-07T10:04:27;9.27;;;4.28;;
29574;SDS011;16507;51.046;6.406;2023-09-07T10:07:03;6.55;;;4.00;;
29574;SDS011;16507;51.046;6.406;2023-09-07T10:09:33;5.30;;;3.70;;
29574;SDS011;16507;51.046;6.406;2023-09-07T10:12:01;7.68;;;3.40;;
29574;SDS011;16507;51.046;6.406;2023-09-07T10:14:41;9.43;;;3.70;;
29574;SDS011;16507;51.046;6.406;2023-09-07T10:17:07;8.23;;;3.53;;
29574;SDS011;16507;51.046;6.406;2023-09-07T10:19:34;8.27;;;3.45;;
29574;SDS011;16507;51.046;6.406;2023-09-07T10:22:02;6.90;;;3.15;;
29574;SDS011;16507;51.046;6.406;2023-09-07T10:24:29;5.82;;;3.40;;
29574;SDS011;16507;51.046;6.406;2023-09-07T10:27:03;7.28;;;3.53;;
29574;SDS011;16507;51.046;6.406;2023-09-07T10:29:46;4.40;;;3.80;;
29574;SDS011;16507;51.046;6.406;2023-09-07T10:32:17;7.50;;;3.22;;
29574;SDS011;16507;51.046;6.406;2023-09-07T10:34:43;4.57;;;3.28;;
29574;SDS011;16507;51.046;6.406;2023-09-07T10:37:12;8.30;;;2.85;;
29574;SDS011;16507;51.046;6.406;2023-09-07T10:39:39;17.20;;;3.80;;
29574;SDS011;16507;51.046;6.406;2023-09-07T10:42:08;6.45;;;2.97;;
29574;SDS011;16507;51.046;6.406;2023-09-07T10:44:34;53.95;;;4.25;;
29574;SDS011;16507;51.046;6.406;2023-09-07T10:46:59;3.10;;;2.80;;
29574;SDS011;16507;51.046;6.406;2023-09-07T10:49:25;5.00;;;2.67;;
29574;SDS011;16507;51.046;6.406;2023-09-07T10:51:51;4.65;;;3.22;;
29574;SDS011;16507;51.046;6.406;2023-09-07T10:54:17;8.35;;;3.03;;
29574;SDS011;16507;51.046;6.406;2023-09-07T10:56:46;5.25;;;3.10;;
29574;SDS011;16507;51.046;6.406;2023-09-07T10:59:13;4.25;;;3.28;;
29574;SDS011;16507;51.046;6.406;2023-09-07T11:01:39;7.35;;;3.00;;
29574;SDS011;16507;51.046;6.406;2023-09-07T11:04:05;5.50;;;2.67;;
29574;SDS011;16507;51.046;6.406;2023-09-07T11:06:33;3.80;;;2.58;;
29574;SDS011;16507;51.046;6.406;2023-09-07T11:08:59;7.47;;;2.95;;
29574;SDS011;16507;51.046;6.406;2023-09-07T11:11:26;7.38;;;2.80;;
29574;SDS011;16507;51.046;6.406;2023-09-07T11:13:52;7.30;;;2.50;;
29574;SDS011;16507;51.046;6.406;2023-09-07T11:16:18;3.30;;;3.00;;
29574;SDS011;16507;51.046;6.406;2023-09-07T11:18:44;3.13;;;2.90;;
29574;SDS011;16507;51.046;6.406;2023-09-07T11:21:11;12.65;;;2.95;;
29574;SDS011;16507;51.046;6.406;2023-09-07T11:23:37;5.32;;;2.60;;
29574;SDS011;16507;51.046;6.406;2023-09-07T11:26:05;9.73;;;2.53;;
29574;SDS011;16507;51.046;6.406;2023-09-07T11:28:34;5.72;;;2.65;;
29574;SDS011;16507;51.046;6.406;2023-09-07T11:31:00;6.55;;;2.40;;
29574;SDS011;16507;51.046;6.406;2023-09-07T11:33:26;4.72;;;2.78;;
29574;SDS011;16507;51.046;6.406;2023-09-07T11:35:52;4.78;;;2.63;;
29574;SDS011;16507;51.046;6.406;2023-09-07T11:38:21;6.35;;;2.80;;
29574;SDS011;16507;51.046;6.406;2023-09-07T11:40:47;27.40;;;3.08;;
29574;SDS011;16507;51.046;6.406;2023-09-07T11:43:13;3.88;;;2.42;;
29574;SDS011;16507;51.046;6.406;2023-09-07T11:45:40;3.53;;;2.40;;
29574;SDS011;16507;51.046;6.406;2023-09-07T11:48:07;7.13;;;2.20;;
29574;SDS011;16507;51.046;6.406;2023-09-07T11:50:35;2.42;;;2.33;;
29574;SDS011;16507;51.046;6.406;2023-09-07T11:53:02;6.00;;;2.80;;
29574;SDS011;16507;51.046;6.406;2023-09-07T11:55:28;13.45;;;2.75;;
29574;SDS011;16507;51.046;6.406;2023-09-07T11:57:53;4.05;;;2.30;;
29574;SDS011;16507;51.046;6.406;2023-09-07T12:00:19;2.83;;;2.40;;
29574;SDS011;16507;51.046;6.406;2023-09-07T12:02:45;2.90;;;2.22;;
29574;SDS011;16507;51.046;6.406;2023-09-07T12:05:11;3.15;;;2.50;;
29574;SDS011;16507;51.046;6.406;2023-09-07T12:07:40;3.47;;;2.45;;
29574;SDS011;16507;51.046;6.406;2023-09-07T12:10:09;5.30;;;2.00;;
29574;SDS011;16507;51.046;6.406;2023-09-07T12:12:36;7.00;;;2.60;;
29574;SDS011;16507;51.046;6.406;2023-09-07T12:15:05;6.80;;;2.85;;
29574;SDS011;16507;51.046;6.406;2023-09-07T12:17:32;4.78;;;2.58;;
29574;SDS011;16507;51.046;6.406;2023-09-07T12:19:58;6.05;;;2.70;;
29574;SDS011;16507;51.046;6.406;2023-09-07T12:22:24;5.13;;;3.38;;
29574;SDS011;16507;51.046;6.406;2023-09-07T12:24:49;3.75;;;2.47;;
29574;SDS011;16507;51.046;6.406;2023-09-07T12:27:15;2.58;;;2.38;;
29574;SDS011;16507;51.046;6.406;2023-09-07T12:29:41;11.00;;;2.75;;
29574;SDS011;16507;51.046;6.406;2023-09-07T12:32:07;8.45;;;2.70;;
29574;SDS011;16507;51.046;6.406;2023-09-07T12:34:33;6.32;;;2.78;;
29574;SDS011;16507;51.046;6.406;2023-09-07T12:36:58;3.63;;;2.30;;
29574;SDS011;16507;51.046;6.406;2023-09-07T12:39:24;8.73;;;2.85;;
29574;SDS011;16507;51.046;6.406;2023-09-07T12:41:49;12.60;;;2.60;;
29574;SDS011;16507;51.046;6.406;2023-09-07T12:44:15;9.30;;;2.50;;
29574;SDS011;16507;51.046;6.406;2023-09-07T12:46:43;5.63;;;2.20;;
29574;SDS011;16507;51.046;6.406;2023-09-07T12:49:09;5.15;;;2.40;;
29574;SDS011;16507;51.046;6.406;2023-09-07T12:51:34;3.70;;;2.10;;
29574;SDS011;16507;51.046;6.406;2023-09-07T12:54:00;8.02;;;2.65;;
29574;SDS011;16507;51.046;6.406;2023-09-07T12:56:26;7.60;;;2.50;;
29574;SDS011;16507;51.046;6.406;2023-09-07T12:58:52;6.20;;;2.50;;
29574;SDS011;16507;51.046;6.406;2023-09-07T13:01:18;4.80;;;2.20;;
29574;SDS011;16507;51.046;6.406;2023-09-07T13:03:43;5.57;;;2.50;;
29574;SDS011;16507;51.046;6.406;2023-09-07T13:06:09;2.95;;;2.75;;
29574;SDS011;16507;51.046;6.406;2023-09-07T13:08:35;2.83;;;2.17;;
29574;SDS011;16507;51.046;6.406;2023-09-07T13:11:01;6.38;;;2.70;;
29574;SDS011;16507;51.046;6.406;2023-09-07T13:13:26;6.32;;;2.60;;
29574;SDS011;16507;51.046;6.406;2023-09-07T13:15:57;6.68;;;2.60;;
29574;SDS011;16507;51.046;6.406;2023-09-07T13:18:23;3.80;;;2.30;;
29574;SDS011;16507;51.046;6.406;2023-09-07T13:20:50;3.58;;;1.92;;
29574;SDS011;16507;51.046;6.406;2023-09-07T13:23:16;10.15;;;2.47;;
29574;SDS011;16507;51.046;6.406;2023-09-07T13:25:42;4.13;;;2.20;;
29574;SDS011;16507;51.046;6.406;2023-09-07T13:28:08;8.27;;;2.05;;
29574;SDS011;16507;51.046;6.406;2023-09-07T13:30:34;2.55;;;2.35;;
29574;SDS011;16507;51.046;6.406;2023-09-07T13:32:59;3.28;;;2.72;;
29574;SDS011;16507;51.046;6.406;2023-09-07T13:35:25;9.82;;;2.10;;
29574;SDS011;16507;51.046;6.406;2023-09-07T13:37:51;4.43;;;2.10;;
29574;SDS011;16507;51.046;6.406;2023-09-07T13:40:17;8.38;;;2.45;;
29574;SDS011;16507;51.046;6.406;2023-09-07T13:42:44;4.20;;;2.35;;
29574;SDS011;16507;51.046;6.406;2023-09-07T13:45:13;4.38;;;2.30;;
29574;SDS011;16507;51.046;6.406;2023-09-07T13:47:38;4.28;;;2.03;;
29574;SDS011;16507;51.046;6.406;2023-09-07T13:50:04;6.88;;;2.55;;
29574;SDS011;16507;51.046;6.406;2023-09-07T13:52:30;8.73;;;2.40;;
29574;SDS011;16507;51.046;6.406;2023-09-07T13:54:56;3.95;;;2.40;;
29574;SDS011;16507;51.046;6.406;2023-09-07T13:57:22;7.25;;;2.88;;
29574;SDS011;16507;51.046;6.406;2023-09-07T13:59:47;9.05;;;2.58;;
29574;SDS011;16507;51.046;6.406;2023-09-07T14:02:13;3.25;;;2.40;;
29574;SDS011;16507;51.046;6.406;2023-09-07T14:04:39;4.22;;;2.63;;
29574;SDS011;16507;51.046;6.406;2023-09-07T14:07:04;10.90;;;2.95;;
29574;SDS011;16507;51.046;6.406;2023-09-07T14:09:30;7.30;;;2.47;;
29574;SDS011;16507;51.046;6.406;2023-09-07T14:11:56;3.03;;;2.38;;
29574;SDS011;16507;51.046;6.406;2023-09-07T14:14:21;9.68;;;2.95;;
29574;SDS011;16507;51.046;6.406;2023-09-07T14:16:47;4.82;;;2.90;;
29574;SDS011;16507;51.046;6.406;2023-09-07T14:19:15;3.33;;;2.63;;
29574;SDS011;16507;51.046;6.406;2023-09-07T14:21:40;5.45;;;2.55;;
29574;SDS011;16507;51.046;6.406;2023-09-07T14:24:06;7.45;;;3.25;;
29574;SDS011;16507;51.046;6.406;2023-09-07T14:26:32;3.65;;;2.85;;
29574;SDS011;16507;51.046;6.406;2023-09-07T14:28:57;5.60;;;2.70;;
29574;SDS011;16507;51.046;6.406;2023-09-07T14:31:23;8.18;;;2.83;;
29574;SDS011;16507;51.046;6.406;2023-09-07T14:33:48;13.90;;;2.83;;
29574;SDS011;16507;51.046;6.406;2023-09-07T14:36:14;5.45;;;2.55;;